Climatologie pour Saint-Brevin les Pins
Jour • Résumé pour mai 29, 2017 Système :  Métrique    Anglais   Mixte
« - 1 jour
+ 1 jour »
Jour Semaine Mois Année Personnalisé
  Maximum : Minimum : Moyenne :
Température sous abri : 19.3 °C 14.4 °C 17.1 °C
Point de rosée : 18.3 °C 13.8 °C 16.5 °C
Humidité : 98 % 91 % 96 %
Vitesse du vent : 16.1 km/h 0.0 km/h 4.7 km/h
Rafale : 24.1 km/h - -
Direction :- - WSW
Pression : 1016.5 hPa 1011.4 hPa -
Précipitations : 7.6 mm    
Historical Graphs
 
 
Tableau de données pour mai 29, 2017
Heure Tempé Pt rosée Pression Vent Vitesse Rafale Humidité Taux pluie (/hr) Soleil
00:00 18.1 °C 17.1 °C 1013.4 hPa South 8.0 km/h 17.7 km/h 94 % 0.0 mm 0 W/m2
00:10 17.9 °C 16.9 °C 1013.8 hPa SW 6.4 km/h 16.1 km/h 94 % 0.0 mm 0 W/m2
00:15 17.8 °C 16.8 °C 1014.1 hPa SW 9.7 km/h 16.1 km/h 94 % 0.0 mm 0 W/m2
00:20 17.7 °C 16.7 °C 1014.1 hPa West 4.8 km/h 20.9 km/h 94 % 0.0 mm 0 W/m2
00:25 17.7 °C 16.9 °C 1013.8 hPa WSW 8.0 km/h 20.9 km/h 95 % 0.0 mm 0 W/m2
00:30 17.6 °C 16.8 °C 1013.8 hPa WSW 16.1 km/h 24.1 km/h 95 % 0.0 mm 0 W/m2
00:35 17.6 °C 16.7 °C 1013.8 hPa WNW 4.8 km/h 24.1 km/h 95 % 0.0 mm 0 W/m2
00:40 17.6 °C 16.7 °C 1013.8 hPa SSW 6.4 km/h 17.7 km/h 95 % 0.0 mm 0 W/m2
00:45 17.5 °C 16.7 °C 1013.8 hPa West 4.8 km/h 12.9 km/h 95 % 0.0 mm 0 W/m2
00:50 17.5 °C 16.9 °C 1013.4 hPa West 4.8 km/h 11.3 km/h 96 % 0.0 mm 0 W/m2
00:55 17.5 °C 16.9 °C 1013.4 hPa SSW 9.7 km/h 12.9 km/h 96 % 0.0 mm 0 W/m2
01:00 17.5 °C 16.9 °C 1013.1 hPa SSW 8.0 km/h 12.9 km/h 96 % 0.0 mm 0 W/m2
01:10 17.5 °C 16.9 °C 1012.8 hPa SSE 3.2 km/h 9.7 km/h 96 % 0.0 mm 0 W/m2
01:15 17.5 °C 16.9 °C 1012.8 hPa Calm   9.7 km/h 96 % 0.0 mm 0 W/m2
01:20 17.5 °C 16.9 °C 1012.4 hPa Calm   6.4 km/h 96 % 0.0 mm 0 W/m2
01:25 17.4 °C 16.8 °C 1012.4 hPa Calm   6.4 km/h 96 % 0.0 mm 0 W/m2
01:30 17.4 °C 16.8 °C 1012.4 hPa Calm   3.2 km/h 96 % 0.0 mm 0 W/m2
01:35 17.5 °C 16.9 °C 1012.4 hPa Calm   4.8 km/h 96 % 0.0 mm 0 W/m2
01:40 17.4 °C 16.8 °C 1012.4 hPa Calm   4.8 km/h 96 % 0.0 mm 0 W/m2
01:45 17.4 °C 16.7 °C 1012.1 hPa Calm   1.6 km/h 96 % 0.0 mm 0 W/m2
01:50 17.4 °C 16.8 °C 1012.4 hPa Calm   1.6 km/h 96 % 0.0 mm 0 W/m2
01:55 17.3 °C 16.7 °C 1012.4 hPa Calm   1.6 km/h 96 % 0.0 mm 0 W/m2
02:05 17.3 °C 16.9 °C 1012.1 hPa Calm     97 % 0.0 mm 0 W/m2
02:10 17.3 °C 16.6 °C 1012.1 hPa Calm     96 % 0.0 mm 0 W/m2
02:15 17.2 °C 16.5 °C 1012.1 hPa Calm     96 % 0.0 mm 0 W/m2
02:20 17.2 °C 16.5 °C 1012.1 hPa Calm     96 % 0.0 mm 0 W/m2
02:25 17.2 °C 16.7 °C 1012.1 hPa Calm     97 % 0.0 mm 0 W/m2
02:30 17.2 °C 16.7 °C 1012.1 hPa Calm     97 % 0.0 mm 0 W/m2
02:35 17.3 °C 16.8 °C 1012.1 hPa Calm     97 % 0.0 mm 0 W/m2
02:40 17.3 °C 16.8 °C 1011.7 hPa Calm     97 % 0.0 mm 0 W/m2
02:45 17.3 °C 16.8 °C 1011.7 hPa Calm     97 % 0.0 mm 0 W/m2
02:50 17.3 °C 16.8 °C 1011.7 hPa South 1.6 km/h 3.2 km/h 97 % 0.0 mm 0 W/m2
02:55 17.3 °C 16.9 °C 1012.1 hPa Calm   3.2 km/h 97 % 0.0 mm 0 W/m2
03:00 17.3 °C 16.9 °C 1012.1 hPa Calm   3.2 km/h 97 % 0.0 mm 0 W/m2
03:05 17.4 °C 16.9 °C 1012.1 hPa South 3.2 km/h 4.8 km/h 97 % 0.0 mm 0 W/m2
03:10 17.4 °C 17.0 °C 1012.1 hPa South 3.2 km/h 4.8 km/h 97 % 0.0 mm 0 W/m2
03:15 17.4 °C 16.9 °C 1012.1 hPa Calm   4.8 km/h 97 % 0.0 mm 0 W/m2
03:20 17.4 °C 16.9 °C 1012.1 hPa South 3.2 km/h 6.4 km/h 97 % 0.0 mm 0 W/m2
03:25 17.4 °C 16.9 °C 1012.4 hPa WSW 6.4 km/h 8.0 km/h 97 % 0.0 mm 0 W/m2
03:35 17.4 °C 16.9 °C 1012.1 hPa SW 4.8 km/h 8.0 km/h 97 % 0.0 mm 0 W/m2
03:40 17.4 °C 16.9 °C 1012.4 hPa SW 1.6 km/h 8.0 km/h 97 % 0.0 mm 0 W/m2
03:45 17.4 °C 16.9 °C 1012.4 hPa WSW 4.8 km/h 9.7 km/h 97 % 0.0 mm 0 W/m2
03:50 17.4 °C 16.9 °C 1012.4 hPa WSW 9.7 km/h 12.9 km/h 97 % 0.0 mm 0 W/m2
03:55 17.4 °C 16.9 °C 1012.4 hPa Calm   12.9 km/h 97 % 0.0 mm 0 W/m2
04:00 17.3 °C 16.9 °C 1012.8 hPa SSW 6.4 km/h 12.9 km/h 97 % 0.0 mm 0 W/m2
04:05 17.3 °C 16.8 °C 1012.8 hPa SSW 6.4 km/h 9.7 km/h 97 % 0.0 mm 0 W/m2
04:10 17.3 °C 16.8 °C 1012.8 hPa SSW 8.0 km/h 11.3 km/h 97 % 0.0 mm 0 W/m2
04:15 17.3 °C 16.8 °C 1013.1 hPa South 11.3 km/h 14.5 km/h 97 % 0.0 mm 0 W/m2
04:20 17.3 °C 16.9 °C 1012.8 hPa SSW 3.2 km/h 14.5 km/h 97 % 0.0 mm 0 W/m2
04:25 17.3 °C 16.9 °C 1012.8 hPa SW 11.3 km/h 12.9 km/h 97 % 0.0 mm 0 W/m2
04:30 17.3 °C 16.9 °C 1012.8 hPa SW 3.2 km/h 16.1 km/h 97 % 0.0 mm 0 W/m2
04:35 17.3 °C 16.9 °C 1012.8 hPa SSW 9.7 km/h 16.1 km/h 97 % 0.0 mm 0 W/m2
04:40 17.3 °C 16.8 °C 1012.8 hPa SW 4.8 km/h 14.5 km/h 97 % 0.0 mm 0 W/m2
04:45 17.3 °C 16.8 °C 1013.1 hPa West 11.3 km/h 17.7 km/h 97 % 0.0 mm 0 W/m2
04:50 17.3 °C 16.8 °C 1013.1 hPa SW 4.8 km/h 24.1 km/h 97 % 0.0 mm 0 W/m2
04:55 17.2 °C 16.7 °C 1013.1 hPa SW 3.2 km/h 24.1 km/h 97 % 0.0 mm 0 W/m2
05:00 17.2 °C 16.7 °C 1012.8 hPa South 8.0 km/h 17.7 km/h 97 % 0.0 mm 0 W/m2
05:05 17.1 °C 16.6 °C 1012.4 hPa WSW 4.8 km/h 17.7 km/h 97 % 0.0 mm 0 W/m2
05:10 17.1 °C 16.6 °C 1012.1 hPa SSW 1.6 km/h 11.3 km/h 97 % 0.0 mm 0 W/m2
05:15 17.1 °C 16.6 °C 1012.1 hPa WSW 4.8 km/h 9.7 km/h 97 % 0.0 mm 0 W/m2
05:20 17.0 °C 16.5 °C 1011.7 hPa SW 3.2 km/h 9.7 km/h 97 % 0.0 mm 0 W/m2
05:25 16.9 °C 16.5 °C 1011.7 hPa Calm   9.7 km/h 97 % 0.0 mm 0 W/m2
05:30 16.9 °C 16.4 °C 1011.7 hPa Calm   6.4 km/h 97 % 0.0 mm 0 W/m2
05:35 16.9 °C 16.4 °C 1011.4 hPa Calm   3.2 km/h 97 % 0.0 mm 0 W/m2
05:40 16.9 °C 16.4 °C 1011.7 hPa Calm   3.2 km/h 97 % 0.0 mm 0 W/m2
05:45 16.9 °C 16.4 °C 1011.4 hPa Calm   3.2 km/h 97 % 0.0 mm 0 W/m2
05:50 16.9 °C 16.4 °C 1011.4 hPa Calm     97 % 0.0 mm 0 W/m2
05:55 16.8 °C 16.4 °C 1011.4 hPa Calm     97 % 0.0 mm 0 W/m2
06:00 16.8 °C 16.3 °C 1011.7 hPa Calm     97 % 0.0 mm 0 W/m2
06:05 16.8 °C 16.4 °C 1011.7 hPa SSW 8.0 km/h 8.0 km/h 97 % 0.0 mm 0 W/m2
06:10 16.9 °C 16.4 °C 1012.1 hPa SSW 4.8 km/h 8.0 km/h 97 % 0.0 mm 0 W/m2
06:20 17.0 °C 16.5 °C 1012.4 hPa SSW 6.4 km/h 14.5 km/h 97 % 0.0 mm 0 W/m2
06:25 17.0 °C 16.5 °C 1012.8 hPa SSE 6.4 km/h 14.5 km/h 97 % 0.0 mm 0 W/m2
06:30 17.1 °C 16.6 °C 1012.4 hPa SSW 3.2 km/h 11.3 km/h 97 % 0.3 mm 0 W/m2
06:35 17.1 °C 16.6 °C 1012.8 hPa SSW 4.8 km/h 9.7 km/h 97 % 0.3 mm 0 W/m2
06:40 17.1 °C 16.6 °C 1013.1 hPa South 4.8 km/h 9.7 km/h 97 % 0.5 mm 0 W/m2
06:45 17.1 °C 16.6 °C 1013.4 hPa SW 6.4 km/h 9.7 km/h 97 % 0.5 mm 0 W/m2
06:50 17.1 °C 16.6 °C 1013.4 hPa West 4.8 km/h 9.7 km/h 97 % 0.5 mm 0 W/m2
06:55 17.2 °C 16.8 °C 1013.4 hPa SW 1.6 km/h 11.3 km/h 98 % 0.8 mm 0 W/m2
07:00 17.2 °C 16.7 °C 1013.4 hPa Calm   11.3 km/h 97 % 1.0 mm 0 W/m2
07:05 17.1 °C 16.6 °C 1013.4 hPa WSW 6.4 km/h 12.9 km/h 97 % 1.3 mm 0 W/m2
07:10 17.1 °C 16.8 °C 1013.4 hPa SW 6.4 km/h 12.9 km/h 98 % 1.5 mm 0 W/m2
07:15 17.1 °C 16.6 °C 1013.4 hPa WSW 6.4 km/h 12.9 km/h 97 % 1.5 mm 0 W/m2
07:20 16.9 °C 16.5 °C 1013.4 hPa West 6.4 km/h 12.9 km/h 97 % 1.8 mm 0 W/m2
07:25 16.9 °C 16.4 °C 1013.1 hPa WSW 3.2 km/h 11.3 km/h 97 % 2.3 mm 0 W/m2
07:30 16.9 °C 16.4 °C 1013.4 hPa Calm   14.5 km/h 97 % 2.3 mm 0 W/m2
07:35 16.9 °C 16.4 °C 1013.1 hPa SSW 4.8 km/h 14.5 km/h 97 % 2.5 mm 0 W/m2
07:40 16.9 °C 16.4 °C 1013.1 hPa SSW 4.8 km/h 11.3 km/h 97 % 2.8 mm 0 W/m2
07:45 16.9 °C 16.6 °C 1013.1 hPa SSW 3.2 km/h 11.3 km/h 98 % 3.0 mm 0 W/m2
07:50 16.9 °C 16.6 °C 1013.1 hPa West 1.6 km/h 11.3 km/h 98 % 3.0 mm 5 W/m2
07:55 16.9 °C 16.6 °C 1013.1 hPa WSW 3.2 km/h 12.9 km/h 98 % 3.0 mm 7 W/m2
08:00 16.9 °C 16.6 °C 1013.1 hPa NW 3.2 km/h 12.9 km/h 98 % 3.0 mm 14 W/m2
08:05 16.9 °C 16.6 °C 1013.1 hPa Calm   9.7 km/h 98 % 2.8 mm 11 W/m2
08:10 16.8 °C 16.5 °C 1012.8 hPa Calm   6.4 km/h 98 % 2.5 mm 11 W/m2
08:15 16.8 °C 16.5 °C 1012.4 hPa Calm   4.8 km/h 98 % 2.3 mm 18 W/m2
08:20 16.9 °C 16.6 °C 1013.1 hPa SW 4.8 km/h 4.8 km/h 98 % 2.3 mm 23 W/m2
08:25 16.9 °C 16.6 °C 1013.1 hPa SW 3.2 km/h 4.8 km/h 98 % 2.0 mm 26 W/m2
08:30 16.9 °C 16.6 °C 1013.1 hPa SW 3.2 km/h 4.8 km/h 98 % 1.8 mm 32 W/m2
08:35 16.9 °C 16.6 °C 1013.1 hPa SW 4.8 km/h 6.4 km/h 98 % 1.5 mm 30 W/m2
08:40 17.0 °C 16.7 °C 1013.1 hPa SW 3.2 km/h 6.4 km/h 98 % 1.0 mm 35 W/m2
08:50 16.9 °C 16.6 °C 1013.1 hPa Calm   6.4 km/h 98 % 0.8 mm 49 W/m2
08:55 17.1 °C 16.7 °C 1012.8 hPa Calm   4.8 km/h 98 % 0.5 mm 63 W/m2
09:00 17.1 °C 16.8 °C 1012.8 hPa Calm   1.6 km/h 98 % 0.5 mm 72 W/m2
09:05 17.2 °C 16.8 °C 1013.1 hPa SSE 6.4 km/h 8.0 km/h 98 % 0.5 mm 62 W/m2
09:10 17.2 °C 16.8 °C 1013.1 hPa South 4.8 km/h 9.7 km/h 98 % 0.5 mm 58 W/m2
09:15 17.2 °C 16.9 °C 1013.4 hPa SSW 6.4 km/h 9.7 km/h 98 % 0.5 mm 67 W/m2
09:20 17.3 °C 17.0 °C 1013.4 hPa SSW 1.6 km/h 8.0 km/h 98 % 0.3 mm 88 W/m2
09:25 17.3 °C 17.0 °C 1013.4 hPa SW 1.6 km/h 8.0 km/h 98 % 0.3 mm 109 W/m2
09:30 17.4 °C 17.1 °C 1013.4 hPa SSE 6.4 km/h 6.4 km/h 98 % 0.3 mm 88 W/m2
09:35 17.4 °C 17.1 °C 1013.4 hPa SSE 3.2 km/h 8.0 km/h 98 % 0.3 mm 91 W/m2
09:40 17.4 °C 17.1 °C 1013.4 hPa Calm   8.0 km/h 98 % 0.3 mm 83 W/m2
09:45 17.4 °C 17.1 °C 1013.1 hPa Calm   8.0 km/h 98 % 0.3 mm 81 W/m2
09:50 17.4 °C 17.1 °C 1013.1 hPa SE 1.6 km/h 6.4 km/h 98 % 0.0 mm 120 W/m2
09:55 17.6 °C 17.2 °C 1013.4 hPa SE 4.8 km/h 4.8 km/h 98 % 0.0 mm 128 W/m2
10:00 17.6 °C 17.3 °C 1013.4 hPa SE 1.6 km/h 6.4 km/h 98 % 0.0 mm 130 W/m2
10:05 17.7 °C 17.4 °C 1013.8 hPa Calm   6.4 km/h 98 % 0.0 mm 102 W/m2
10:10 17.8 °C 17.5 °C 1013.4 hPa Calm   4.8 km/h 98 % 0.0 mm 151 W/m2
10:15 17.9 °C 17.6 °C 1013.4 hPa SE 3.2 km/h 4.8 km/h 98 % 0.0 mm 102 W/m2
10:20 17.7 °C 17.4 °C 1013.4 hPa West 4.8 km/h 8.0 km/h 98 % 0.0 mm 102 W/m2
10:25 17.7 °C 17.4 °C 1013.4 hPa West 3.2 km/h 8.0 km/h 98 % 0.0 mm 179 W/m2
10:30 17.8 °C 17.5 °C 1013.4 hPa Calm   6.4 km/h 98 % 0.0 mm 151 W/m2
10:35 17.7 °C 17.4 °C 1013.1 hPa West 3.2 km/h 4.8 km/h 98 % 0.0 mm 172 W/m2
10:40 17.8 °C 17.5 °C 1013.1 hPa West 3.2 km/h 4.8 km/h 98 % 0.0 mm 179 W/m2
10:45 17.9 °C 17.6 °C 1013.1 hPa WSW 1.6 km/h 6.4 km/h 98 % 0.0 mm 211 W/m2
10:50 17.9 °C 17.6 °C 1013.4 hPa WSW 4.8 km/h 6.4 km/h 98 % 0.0 mm 137 W/m2
10:55 17.9 °C 17.6 °C 1013.4 hPa West 8.0 km/h 8.0 km/h 98 % 0.0 mm 97 W/m2
11:00 17.8 °C 17.5 °C 1013.4 hPa West 4.8 km/h 9.7 km/h 98 % 0.0 mm 139 W/m2
11:05 17.8 °C 17.5 °C 1013.4 hPa WSW 6.4 km/h 9.7 km/h 98 % 0.0 mm 104 W/m2
11:15 17.8 °C 17.5 °C 1013.4 hPa WSW 6.4 km/h 8.0 km/h 98 % 0.0 mm 158 W/m2
11:20 17.8 °C 17.5 °C 1013.4 hPa WSW 6.4 km/h 9.7 km/h 98 % 0.0 mm 137 W/m2
11:25 17.8 °C 17.5 °C 1013.4 hPa WSW 1.6 km/h 9.7 km/h 98 % 0.0 mm 135 W/m2
11:30 17.7 °C 17.2 °C 1013.8 hPa Calm   11.3 km/h 97 % 0.0 mm 62 W/m2
11:35 17.6 °C 17.1 °C 1013.8 hPa Calm   11.3 km/h 97 % 0.0 mm 44 W/m2
11:40 17.4 °C 17.0 °C 1013.8 hPa West 1.6 km/h 9.7 km/h 97 % 0.0 mm 35 W/m2
11:45 17.4 °C 17.1 °C 1013.4 hPa West 1.6 km/h 9.7 km/h 98 % 0.0 mm 142 W/m2
11:50 17.5 °C 17.2 °C 1013.8 hPa West 6.4 km/h 8.0 km/h 98 % 0.0 mm 107 W/m2
11:55 17.5 °C 17.2 °C 1013.4 hPa WSW 3.2 km/h 8.0 km/h 98 % 0.0 mm 176 W/m2
12:00 17.6 °C 17.1 °C 1013.8 hPa West 4.8 km/h 8.0 km/h 97 % 0.0 mm 65 W/m2
12:05 17.5 °C 17.0 °C 1013.8 hPa West 3.2 km/h 11.3 km/h 97 % 0.0 mm 88 W/m2
12:10 17.5 °C 17.2 °C 1013.8 hPa West 9.7 km/h 11.3 km/h 98 % 0.0 mm 120 W/m2
12:15 17.6 °C 17.2 °C 1013.8 hPa Calm   12.9 km/h 98 % 0.0 mm 74 W/m2
12:20 17.6 °C 17.2 °C 1013.8 hPa SW 4.8 km/h 12.9 km/h 98 % 0.0 mm 63 W/m2
12:25 17.5 °C 17.0 °C 1013.8 hPa WSW 1.6 km/h 9.7 km/h 97 % 0.0 mm 70 W/m2
12:30 17.5 °C 17.2 °C 1013.8 hPa Calm   8.0 km/h 98 % 0.0 mm 125 W/m2
12:35 17.6 °C 17.1 °C 1013.8 hPa West 8.0 km/h 8.0 km/h 97 % 0.0 mm 91 W/m2
12:40 17.5 °C 17.0 °C 1013.8 hPa West 4.8 km/h 8.0 km/h 97 % 0.0 mm 114 W/m2
12:45 17.6 °C 17.3 °C 1013.8 hPa Calm   8.0 km/h 98 % 0.0 mm 271 W/m2
12:50 17.8 °C 17.5 °C 1013.8 hPa WSW 4.8 km/h 8.0 km/h 98 % 0.0 mm 160 W/m2
12:55 17.8 °C 17.3 °C 1013.8 hPa WNW 3.2 km/h 9.7 km/h 97 % 0.0 mm 237 W/m2
13:00 17.9 °C 17.6 °C 1013.8 hPa WSW 4.8 km/h 9.7 km/h 98 % 0.0 mm 345 W/m2
13:05 18.0 °C 17.5 °C 1013.8 hPa SSW 3.2 km/h 11.3 km/h 97 % 0.0 mm 318 W/m2
13:10 18.2 °C 17.8 °C 1013.8 hPa WSW 11.3 km/h 12.9 km/h 98 % 0.0 mm 366 W/m2
13:15 18.3 °C 17.8 °C 1013.8 hPa WSW 8.0 km/h 12.9 km/h 97 % 0.0 mm 420 W/m2
13:20 18.2 °C 17.7 °C 1013.8 hPa SW 1.6 km/h 12.9 km/h 97 % 0.0 mm 309 W/m2
13:25 18.3 °C 17.6 °C 1013.8 hPa WSW 11.3 km/h 12.9 km/h 96 % 0.0 mm 309 W/m2
13:30 18.5 °C 18.0 °C 1014.1 hPa SW 8.0 km/h 11.3 km/h 97 % 0.0 mm 399 W/m2
13:35 18.4 °C 17.6 °C 1014.1 hPa WSW 4.8 km/h 12.9 km/h 95 % 0.0 mm 258 W/m2
13:40 18.4 °C 17.5 °C 1014.1 hPa WNW 3.2 km/h 12.9 km/h 94 % 0.0 mm 285 W/m2
13:45 18.5 °C 17.7 °C 1013.8 hPa SW 8.0 km/h 11.3 km/h 95 % 0.0 mm 360 W/m2
13:50 18.8 °C 18.1 °C 1014.1 hPa SW 8.0 km/h 11.3 km/h 96 % 0.0 mm 469 W/m2
13:55 19.3 °C 18.3 °C 1014.1 hPa SSW 3.2 km/h 11.3 km/h 94 % 0.0 mm 339 W/m2
14:00 18.9 °C 17.8 °C 1014.1 hPa WSW 12.9 km/h 12.9 km/h 93 % 0.0 mm 188 W/m2
14:05 18.7 °C 17.3 °C 1014.1 hPa South 8.0 km/h 12.9 km/h 92 % 0.0 mm 153 W/m2
14:10 18.4 °C 17.3 °C 1014.1 hPa SW 3.2 km/h 11.3 km/h 93 % 0.0 mm 156 W/m2
14:15 18.4 °C 17.3 °C 1014.1 hPa SW 4.8 km/h 8.0 km/h 93 % 0.0 mm 135 W/m2
14:20 18.4 °C 17.2 °C 1014.1 hPa SW 4.8 km/h 12.9 km/h 93 % 0.0 mm 132 W/m2
14:25 18.2 °C 17.0 °C 1014.1 hPa West 8.0 km/h 12.9 km/h 93 % 0.0 mm 163 W/m2
14:30 18.2 °C 17.2 °C 1014.1 hPa WSW 3.2 km/h 12.9 km/h 94 % 0.0 mm 171 W/m2
14:35 18.2 °C 17.2 °C 1014.1 hPa West 3.2 km/h 9.7 km/h 94 % 0.0 mm 292 W/m2
14:40 18.4 °C 17.6 °C 1014.1 hPa West 6.4 km/h 9.7 km/h 95 % 0.0 mm 322 W/m2
14:50 18.6 °C 17.6 °C 1014.1 hPa WSW 8.0 km/h 11.3 km/h 94 % 0.0 mm 197 W/m2
14:55 18.6 °C 17.6 °C 1014.1 hPa SW 8.0 km/h 11.3 km/h 94 % 0.0 mm 178 W/m2
15:00 18.4 °C 17.2 °C 1014.1 hPa WNW 3.2 km/h 11.3 km/h 93 % 0.0 mm 192 W/m2
15:05 18.6 °C 17.6 °C 1014.1 hPa WSW 3.2 km/h 11.3 km/h 94 % 0.0 mm 262 W/m2
15:10 18.6 °C 17.6 °C 1014.1 hPa Calm   9.7 km/h 94 % 0.0 mm 316 W/m2
15:15 18.6 °C 17.6 °C 1014.1 hPa Calm   9.7 km/h 94 % 0.0 mm 120 W/m2
15:20 18.2 °C 17.2 °C 1014.1 hPa West 1.6 km/h 9.7 km/h 94 % 0.0 mm 95 W/m2
15:25 18.0 °C 17.0 °C 1014.1 hPa WSW 4.8 km/h 11.3 km/h 94 % 0.0 mm 81 W/m2
15:30 17.9 °C 17.1 °C 1014.1 hPa West 9.7 km/h 11.3 km/h 95 % 0.0 mm 146 W/m2
15:35 17.8 °C 17.0 °C 1014.1 hPa WNW 6.4 km/h 11.3 km/h 95 % 0.0 mm 134 W/m2
15:40 17.8 °C 17.0 °C 1014.1 hPa West 9.7 km/h 11.3 km/h 95 % 0.5 mm 141 W/m2
15:45 17.8 °C 17.1 °C 1014.1 hPa WSW 3.2 km/h 11.3 km/h 96 % 0.5 mm 162 W/m2
15:50 17.7 °C 17.1 °C 1014.1 hPa Calm   9.7 km/h 96 % 0.5 mm 174 W/m2
15:55 17.7 °C 17.1 °C 1014.1 hPa West 6.4 km/h 8.0 km/h 96 % 0.5 mm 135 W/m2
16:00 17.7 °C 17.1 °C 1014.1 hPa West 3.2 km/h 9.7 km/h 96 % 0.5 mm 171 W/m2
16:05 17.8 °C 17.1 °C 1014.1 hPa Calm   9.7 km/h 96 % 0.5 mm 93 W/m2
16:10 17.6 °C 17.0 °C 1014.1 hPa WNW 6.4 km/h 12.9 km/h 96 % 0.5 mm 84 W/m2
16:15 17.5 °C 16.9 °C 1014.1 hPa West 6.4 km/h 12.9 km/h 96 % 0.5 mm 86 W/m2
16:20 17.4 °C 16.7 °C 1014.1 hPa WNW 4.8 km/h 9.7 km/h 96 % 0.5 mm 105 W/m2
16:25 17.4 °C 17.0 °C 1014.1 hPa WNW 8.0 km/h 9.7 km/h 97 % 0.5 mm 95 W/m2
16:30 17.3 °C 16.9 °C 1014.1 hPa WNW 1.6 km/h 11.3 km/h 97 % 0.5 mm 98 W/m2
16:35 17.4 °C 17.0 °C 1014.1 hPa Calm   11.3 km/h 97 % 0.5 mm 107 W/m2
16:40 17.4 °C 17.0 °C 1014.1 hPa WNW 3.2 km/h 9.7 km/h 97 % 0.3 mm 72 W/m2
16:45 17.3 °C 16.6 °C 1014.1 hPa WNW 8.0 km/h 9.7 km/h 96 % 0.3 mm 37 W/m2
16:50 17.2 °C 16.5 °C 1014.1 hPa West 9.7 km/h 11.3 km/h 96 % 0.0 mm 23 W/m2
16:55 17.1 °C 16.4 °C 1014.4 hPa NW 4.8 km/h 16.1 km/h 96 % 0.0 mm 18 W/m2
17:00 16.8 °C 16.2 °C 1014.1 hPa NW 4.8 km/h 16.1 km/h 96 % 0.5 mm 49 W/m2
17:05 16.8 °C 16.1 °C 1014.4 hPa WNW 8.0 km/h 14.5 km/h 96 % 0.8 mm 44 W/m2
17:10 16.7 °C 16.2 °C 1014.1 hPa NW 9.7 km/h 14.5 km/h 97 % 1.3 mm 62 W/m2
17:15 16.7 °C 16.2 °C 1014.1 hPa WNW 3.2 km/h 12.9 km/h 97 % 1.5 mm 72 W/m2
17:20 16.7 °C 16.2 °C 1014.4 hPa West 11.3 km/h 14.5 km/h 97 % 2.3 mm 72 W/m2
17:25 16.7 °C 16.2 °C 1014.1 hPa WNW 1.6 km/h 14.5 km/h 97 % 2.5 mm 134 W/m2
17:30 16.9 °C 16.4 °C 1014.1 hPa West 6.4 km/h 12.9 km/h 97 % 2.5 mm 244 W/m2
17:35 17.3 °C 17.0 °C 1014.1 hPa WNW 6.4 km/h 14.5 km/h 98 % 2.5 mm 388 W/m2
17:40 17.7 °C 17.4 °C 1014.1 hPa WNW 6.4 km/h 16.1 km/h 98 % 2.5 mm 534 W/m2
17:45 18.0 °C 17.7 °C 1014.1 hPa WNW 11.3 km/h 16.1 km/h 98 % 2.5 mm 499 W/m2
17:50 17.7 °C 17.2 °C 1014.1 hPa NW 6.4 km/h 14.5 km/h 97 % 2.5 mm 167 W/m2
17:55 17.3 °C 16.9 °C 1014.1 hPa WNW 3.2 km/h 12.9 km/h 97 % 2.5 mm 262 W/m2
18:00 17.5 °C 17.0 °C 1014.1 hPa NW 8.0 km/h 12.9 km/h 97 % 2.0 mm 327 W/m2
18:05 17.7 °C 17.2 °C 1014.4 hPa West 6.4 km/h 14.5 km/h 97 % 1.8 mm 272 W/m2
18:10 17.8 °C 17.3 °C 1014.4 hPa WNW 6.4 km/h 14.5 km/h 97 % 1.3 mm 172 W/m2
18:15 17.4 °C 16.8 °C 1014.4 hPa West 11.3 km/h 17.7 km/h 96 % 0.8 mm 311 W/m2
18:20 17.7 °C 17.2 °C 1014.4 hPa Calm   17.7 km/h 97 % 0.5 mm 278 W/m2
18:25 17.7 °C 17.0 °C 1014.1 hPa SW 14.5 km/h 14.5 km/h 96 % 0.0 mm 246 W/m2
18:30 17.4 °C 16.8 °C 1014.4 hPa NW 9.7 km/h 16.1 km/h 96 % 0.0 mm 241 W/m2
18:35 17.3 °C 16.5 °C 1014.4 hPa West 12.9 km/h 17.7 km/h 95 % 0.0 mm 244 W/m2
18:40 17.3 °C 16.5 °C 1014.4 hPa West 8.0 km/h 17.7 km/h 95 % 0.0 mm 204 W/m2
18:45 17.4 °C 16.8 °C 1014.4 hPa West 12.9 km/h 17.7 km/h 96 % 0.0 mm 311 W/m2
18:50 17.5 °C 16.7 °C 1014.4 hPa West 8.0 km/h 16.1 km/h 95 % 0.0 mm 388 W/m2
18:55 17.4 °C 16.5 °C 1014.4 hPa West 4.8 km/h 16.1 km/h 94 % 0.0 mm 279 W/m2
19:00 17.3 °C 16.3 °C 1014.8 hPa West 8.0 km/h 17.7 km/h 94 % 0.0 mm 151 W/m2
19:05 17.2 °C 16.2 °C 1014.8 hPa West 4.8 km/h 17.7 km/h 94 % 0.0 mm 167 W/m2
19:10 17.0 °C 16.2 °C 1014.4 hPa West 6.4 km/h 14.5 km/h 95 % 0.0 mm 200 W/m2
19:15 17.1 °C 16.3 °C 1014.4 hPa West 6.4 km/h 14.5 km/h 95 % 0.0 mm 269 W/m2
19:20 17.3 °C 16.4 °C 1014.4 hPa WNW 4.8 km/h 12.9 km/h 94 % 0.0 mm 160 W/m2
19:25 17.3 °C 16.2 °C 1014.8 hPa West 3.2 km/h 12.9 km/h 93 % 0.0 mm 174 W/m2
19:30 17.4 °C 16.4 °C 1014.4 hPa NW 1.6 km/h 16.1 km/h 94 % 0.0 mm 360 W/m2
19:35 17.6 °C 16.2 °C 1014.8 hPa West 9.7 km/h 17.7 km/h 92 % 0.0 mm 290 W/m2
19:40 17.6 °C 16.3 °C 1014.8 hPa WNW 11.3 km/h 17.7 km/h 92 % 0.0 mm 260 W/m2
19:45 17.4 °C 15.9 °C 1014.8 hPa West 4.8 km/h 14.5 km/h 91 % 0.0 mm 72 W/m2
19:50 16.9 °C 15.5 °C 1014.8 hPa WNW 1.6 km/h 14.5 km/h 91 % 0.0 mm 49 W/m2
19:55 16.6 °C 15.1 °C 1014.8 hPa West 8.0 km/h 12.9 km/h 91 % 0.0 mm 70 W/m2
20:00 16.4 °C 15.1 °C 1014.8 hPa WNW 8.0 km/h 12.9 km/h 92 % 0.0 mm 116 W/m2
20:05 16.3 °C 15.0 °C 1014.8 hPa NW 9.7 km/h 14.5 km/h 92 % 0.0 mm 174 W/m2
20:10 16.6 °C 15.3 °C 1014.8 hPa West 4.8 km/h 14.5 km/h 92 % 0.0 mm 111 W/m2
20:15 16.5 °C 15.2 °C 1014.8 hPa WNW 8.0 km/h 16.1 km/h 92 % 0.0 mm 109 W/m2
20:20 16.4 °C 15.1 °C 1014.8 hPa West 9.7 km/h 16.1 km/h 92 % 0.0 mm 88 W/m2
20:25 16.3 °C 15.0 °C 1014.8 hPa WNW 9.7 km/h 17.7 km/h 92 % 0.0 mm 74 W/m2
20:30 16.2 °C 15.1 °C 1014.8 hPa WNW 9.7 km/h 17.7 km/h 93 % 0.0 mm 63 W/m2
20:35 16.1 °C 14.8 °C 1015.1 hPa NW 12.9 km/h 17.7 km/h 92 % 0.0 mm 86 W/m2
20:40 16.2 °C 15.0 °C 1014.8 hPa WNW 8.0 km/h 17.7 km/h 93 % 0.0 mm 76 W/m2
20:45 16.2 °C 14.9 °C 1015.1 hPa NW 14.5 km/h 14.5 km/h 92 % 0.0 mm 81 W/m2
20:50 16.2 °C 14.7 °C 1015.1 hPa WNW 6.4 km/h 19.3 km/h 91 % 0.0 mm 91 W/m2
20:55 16.2 °C 14.7 °C 1015.1 hPa West 3.2 km/h 19.3 km/h 91 % 0.0 mm 104 W/m2
21:00 16.3 °C 14.8 °C 1015.1 hPa WNW 1.6 km/h 16.1 km/h 91 % 0.0 mm 97 W/m2
21:05 16.4 °C 15.1 °C 1015.1 hPa WNW 4.8 km/h 14.5 km/h 92 % 0.0 mm 72 W/m2
21:10 16.2 °C 14.7 °C 1015.1 hPa WNW 4.8 km/h 11.3 km/h 91 % 0.0 mm 46 W/m2
21:15 16.0 °C 14.5 °C 1015.1 hPa WNW 4.8 km/h 11.3 km/h 91 % 0.0 mm 33 W/m2
21:20 15.8 °C 14.3 °C 1015.1 hPa West 3.2 km/h 14.5 km/h 91 % 0.0 mm 21 W/m2
21:25 15.7 °C 14.4 °C 1015.1 hPa WNW 3.2 km/h 14.5 km/h 92 % 0.0 mm 14 W/m2
21:30 15.6 °C 14.4 °C 1015.1 hPa West 4.8 km/h 11.3 km/h 93 % 0.0 mm 11 W/m2
21:35 15.6 °C 14.4 °C 1015.5 hPa West 6.4 km/h 14.5 km/h 93 % 0.0 mm 9 W/m2
21:40 15.6 °C 14.4 °C 1015.1 hPa WNW 1.6 km/h 14.5 km/h 93 % 0.0 mm 5 W/m2
21:45 15.5 °C 14.4 °C 1015.1 hPa WNW 4.8 km/h 12.9 km/h 93 % 0.0 mm 0 W/m2
21:50 15.4 °C 14.3 °C 1015.5 hPa West 4.8 km/h 12.9 km/h 93 % 0.0 mm 0 W/m2
21:55 15.3 °C 14.4 °C 1015.5 hPa NW 1.6 km/h 12.9 km/h 94 % 0.0 mm 0 W/m2
22:00 15.3 °C 14.3 °C 1015.5 hPa West 8.0 km/h 19.3 km/h 94 % 0.0 mm 0 W/m2
22:05 15.2 °C 14.3 °C 1015.5 hPa WNW 9.7 km/h 19.3 km/h 94 % 0.0 mm 0 W/m2
22:10 15.1 °C 14.2 °C 1015.5 hPa WNW 1.6 km/h 12.9 km/h 94 % 0.0 mm 0 W/m2
22:15 15.0 °C 14.0 °C 1015.5 hPa West 4.8 km/h 11.3 km/h 94 % 0.0 mm 0 W/m2
22:20 14.9 °C 14.2 °C 1015.5 hPa WNW 3.2 km/h 14.5 km/h 95 % 0.0 mm 0 W/m2
22:25 14.9 °C 14.1 °C 1015.8 hPa NW 3.2 km/h 14.5 km/h 95 % 0.0 mm 0 W/m2
22:30 14.8 °C 14.0 °C 1015.8 hPa WNW 6.4 km/h 11.3 km/h 95 % 0.0 mm 0 W/m2
22:35 14.8 °C 14.0 °C 1015.8 hPa WNW 4.8 km/h 16.1 km/h 95 % 0.0 mm 0 W/m2
22:40 14.8 °C 14.0 °C 1015.8 hPa NW 4.8 km/h 16.1 km/h 95 % 0.0 mm 0 W/m2
22:41 14.8 °C 14.0 °C 1015.8 hPa WNW 14.5 km/h 14.5 km/h 95 % 0.0 mm 0 W/m2
22:42 14.8 °C 14.1 °C 1015.8 hPa West 16.1 km/h 16.1 km/h 95 % 0.0 mm 0 W/m2
22:52 14.8 °C 14.1 °C 1015.8 hPa West 16.1 km/h 16.1 km/h 95 % 0.0 mm 0 W/m2
23:00 14.8 °C 14.0 °C 1016.1 hPa WNW 3.2 km/h 12.9 km/h 95 % 0.0 mm 0 W/m2
23:05 14.7 °C 13.9 °C 1016.1 hPa WNW 3.2 km/h 9.7 km/h 95 % 0.0 mm 0 W/m2
23:10 14.7 °C 13.9 °C 1016.1 hPa Calm   11.3 km/h 95 % 0.0 mm 0 W/m2
23:15 14.6 °C 13.8 °C 1016.1 hPa West 1.6 km/h 11.3 km/h 95 % 0.0 mm 0 W/m2
23:20 14.4 °C 13.8 °C 1016.1 hPa WNW 4.8 km/h 9.7 km/h 96 % 0.0 mm 0 W/m2
23:30 14.4 °C 13.8 °C 1016.5 hPa West 8.0 km/h 9.7 km/h 96 % 0.0 mm 0 W/m2
23:35 14.6 °C 13.9 °C 1016.5 hPa West 6.4 km/h 9.7 km/h 96 % 0.0 mm 0 W/m2
23:40 14.6 °C 13.9 °C 1016.1 hPa NW 4.8 km/h 11.3 km/h 96 % 0.0 mm 0 W/m2
23:45 14.6 °C 13.9 °C 1016.5 hPa West 1.6 km/h 11.3 km/h 96 % 0.0 mm 0 W/m2
23:50 14.6 °C 14.0 °C 1016.5 hPa NW 8.0 km/h 16.1 km/h 96 % 0.0 mm 0 W/m2
23:55 14.7 °C 14.0 °C 1016.5 hPa NW 6.4 km/h 16.1 km/h 96 % 0.0 mm 0 W/m2
Avec l'autorisation de Weather Underground - 1.75 mb